Time;durP1;ratioP1;P1;durP2;ratioP2;P2;SDS_P1;SDS_P2;PMS_P1;PMS_P2;Temp;Humidity;BMP_temperature;BMP_pressure;BME280_temperature;BME280_humidity;BME280_pressure;Samples;Min_cycle;Max_cycle;Signal;HPM_P1;HPM_P2
2022/01/26 00:07:47;;;;;;;;;;;;;;;2.26;88.47;103400.91;5069377;28;20720;-73
2022/01/26 00:10:12;;;;;;;;;;;;;;;2.25;88.86;103405.84;5057977;28;19924;-73
2022/01/26 00:12:37;;;;;;;;;;;;;;;2.24;88.71;103404.91;5052996;28;19928;-73
2022/01/26 00:15:03;;;;;;;;;;;;;;;2.23;88.50;103405.66;5068011;28;19927;-73
2022/01/26 00:17:28;;;;;;;;;;;;;;;2.24;89.08;103404.03;5051120;28;19917;-73
2022/01/26 00:22:52;;;;;;;;;;;;;;;2.21;88.82;103399.53;5069670;28;20331;-72
2022/01/26 00:38:42;;;;;;;;;;;;;;;2.17;87.44;103381.28;5070274;28;19974;-73
2022/01/26 00:41:13;;;;;;;;;;;;;;;2.18;88.10;103378.00;5066755;28;19916;-73
2022/01/26 00:43:41;;;;;;;;;;;;;;;2.17;86.55;103381.28;5068338;28;19924;-73
2022/01/26 00:46:08;;;;;;;;;;;;;;;2.15;86.82;103382.03;5039561;28;20369;-76
2022/01/26 00:48:36;;;;;;;;;;;;;;;2.14;87.23;103381.91;5055976;28;20018;-73
2022/01/26 00:51:04;;;;;;;;;;;;;;;2.14;87.83;103385.31;5051070;28;19924;-72
2022/01/26 00:53:36;;;;;;;;;;;;;;;2.13;88.15;103391.16;5072587;28;20323;-70
2022/01/26 00:56:03;;;;;;;;;;;;;;;2.14;88.37;103386.97;5053223;28;19950;-70
2022/01/26 00:58:28;;;;;;;;;;;;;;;2.15;87.92;103386.22;5072653;28;19966;-71
2022/01/26 01:00:54;;;;;;;;;;;;;;;2.15;88.24;103386.22;5069046;28;19960;-71
2022/01/26 01:03:20;;;;;;;;;;;;;;;2.14;88.40;103386.97;5076658;28;20403;-71
2022/01/26 01:08:23;;;;;;;;;;;;;;;2.11;87.69;103385.00;5074086;28;19980;-71
2022/01/26 01:10:50;;;;;;;;;;;;;;;2.12;87.64;103386.81;5057264;28;19952;-71
2022/01/26 01:13:19;;;;;;;;;;;;;;;2.11;88.18;103377.38;5054529;28;20437;-71
2022/01/26 01:15:45;;;;;;;;;;;;;;;2.11;87.88;103373.94;5054456;28;19928;-71
2022/01/26 01:18:23;;;;;;;;;;;;;;;2.11;87.48;103364.69;5071396;28;20356;-71
2022/01/26 01:26:26;;;;;;;;;;;;;;;2.11;88.44;103372.31;5056875;28;19920;-71
2022/01/26 01:31:19;;;;;;;;;;;;;;;2.11;87.96;103356.19;5054752;28;20383;-71
2022/01/26 01:33:47;;;;;;;;;;;;;;;2.11;88.14;103346.03;5068213;28;19927;-71
2022/01/26 01:36:13;;;;;;;;;;;;;;;2.13;88.15;103339.50;5053660;28;20018;-71
2022/01/26 01:38:42;;;;;;;;;;;;;;;2.11;88.98;103334.25;5077631;28;20006;-71
2022/01/26 01:41:08;;;;;;;;;;;;;;;2.12;88.52;103338.59;5059771;28;20408;-72
2022/01/26 01:43:33;;;;;;;;;;;;;;;2.14;88.50;103343.81;5058173;28;19964;-71
2022/01/26 01:45:59;;;;;;;;;;;;;;;2.13;88.30;103344.56;5058226;28;20407;-71
2022/01/26 01:48:28;;;;;;;;;;;;;;;2.11;88.35;103357.09;5070860;28;19967;-71
2022/01/26 01:50:56;;;;;;;;;;;;;;;2.09;88.60;103357.69;5053824;28;19916;-71
2022/01/26 01:53:30;;;;;;;;;;;;;;;2.11;88.42;103362.16;5056492;28;19931;-71
2022/01/26 01:55:58;;;;;;;;;;;;;;;2.10;89.01;103346.78;5072173;28;19924;-71
2022/01/26 01:58:23;;;;;;;;;;;;;;;2.11;88.72;103353.66;5058171;28;19923;-71
2022/01/26 02:00:49;;;;;;;;;;;;;;;2.10;89.07;103350.22;5072313;28;19921;-71
2022/01/26 02:03:14;;;;;;;;;;;;;;;2.09;88.86;103345.88;5053551;28;19927;-71
2022/01/26 02:05:39;;;;;;;;;;;;;;;2.11;88.38;103346.03;5060078;28;19963;-71
2022/01/26 02:08:05;;;;;;;;;;;;;;;2.05;88.06;103333.63;5039839;28;19986;-71
2022/01/26 02:10:31;;;;;;;;;;;;;;;2.06;88.46;103320.22;5059293;28;19927;-71
2022/01/26 02:13:00;;;;;;;;;;;;;;;2.05;88.10;103323.47;5052725;28;20304;-70
2022/01/26 02:15:33;;;;;;;;;;;;;;;2.05;88.24;103322.56;5071141;28;19924;-71
2022/01/26 02:18:28;;;;;;;;;;;;;;;2.02;87.78;103324.81;5056716;28;19955;-71
2022/01/26 02:55:41;;;;;;;;;;;;;;;2.03;87.55;103276.75;5062051;28;19924;-72
2022/01/26 02:59:10;;;;;;;;;;;;;;;2.06;87.41;103272.00;5049570;28;20011;-71
2022/01/26 03:03:44;;;;;;;;;;;;;;;1.91;88.37;103287.28;5068254;28;19935;-71
2022/01/26 03:06:15;;;;;;;;;;;;;;;1.92;88.61;103282.38;5052555;28;20284;-71
2022/01/26 03:08:55;;;;;;;;;;;;;;;1.93;88.71;103274.00;5049828;28;20277;-71
2022/01/26 03:11:26;;;;;;;;;;;;;;;1.95;88.44;103261.50;5047794;28;20377;-71
2022/01/26 03:13:57;;;;;;;;;;;;;;;1.94;88.31;103267.28;5043890;28;20407;-71
2022/01/26 03:16:32;;;;;;;;;;;;;;;1.93;88.22;103273.13;5049403;28;19932;-70
2022/01/26 03:21:31;;;;;;;;;;;;;;;1.91;88.46;103274.59;5068540;28;20019;-71
2022/01/26 03:34:53;;;;;;;;;;;;;;;1.86;88.61;103259.81;5071868;28;20353;-71
2022/01/26 03:37:21;;;;;;;;;;;;;;;1.84;88.57;103262.94;5050859;28;20019;-71
2022/01/26 03:39:46;;;;;;;;;;;;;;;1.83;88.99;103266.22;5051608;28;19931;-71
2022/01/26 03:42:15;;;;;;;;;;;;;;;1.84;89.09;103273.09;5052458;28;19924;-71
2022/01/26 03:44:41;;;;;;;;;;;;;;;1.86;88.51;103271.59;5068339;28;20026;-71
2022/01/26 03:47:07;;;;;;;;;;;;;;;1.82;88.89;103254.25;5072894;28;19916;-71
2022/01/26 03:49:34;;;;;;;;;;;;;;;1.77;88.96;103246.22;5071220;28;20023;-71
2022/01/26 03:51:59;;;;;;;;;;;;;;;1.76;89.04;103252.03;5056997;28;20285;-73
2022/01/26 03:54:24;;;;;;;;;;;;;;;1.72;88.71;103252.44;5071918;28;19920;-71
2022/01/26 03:56:50;;;;;;;;;;;;;;;1.74;89.05;103250.97;5052642;28;19974;-71
2022/01/26 03:59:15;;;;;;;;;;;;;;;1.76;89.24;103256.19;5069371;28;19960;-71
2022/01/26 04:01:41;;;;;;;;;;;;;;;1.76;88.98;103254.56;5067313;28;19916;-71
2022/01/26 04:04:06;;;;;;;;;;;;;;;1.76;89.23;103264.72;5054226;28;19916;-71
2022/01/26 04:06:32;;;;;;;;;;;;;;;1.80;89.06;103258.28;5049041;28;19921;-70
2022/01/26 04:08:58;;;;;;;;;;;;;;;1.85;88.96;103259.66;5065564;28;19923;-71
2022/01/26 04:11:35;;;;;;;;;;;;;;;1.80;89.57;103261.72;5066968;28;19920;-71
2022/01/26 04:14:02;;;;;;;;;;;;;;;1.86;88.83;103258.91;5066880;28;19925;-71
2022/01/26 04:16:27;;;;;;;;;;;;;;;1.85;88.97;103258.03;5069653;28;20368;-71
2022/01/26 04:18:54;;;;;;;;;;;;;;;1.82;89.23;103257.72;5050351;28;19970;-71
2022/01/26 04:26:51;;;;;;;;;;;;;;;1.79;89.16;103262.47;5055793;28;19920;-71
2022/01/26 04:29:29;;;;;;;;;;;;;;;1.86;88.75;103261.44;5058203;28;19924;-71
2022/01/26 04:31:54;;;;;;;;;;;;;;;1.79;88.72;103262.47;5054548;28;20262;-71
2022/01/26 04:34:20;;;;;;;;;;;;;;;1.81;89.12;103277.84;5073823;28;19923;-71
2022/01/26 04:36:52;;;;;;;;;;;;;;;1.73;89.14;103288.84;5051948;28;19973;-71
2022/01/26 04:39:24;;;;;;;;;;;;;;;1.84;88.70;103286.69;5056092;28;19979;-70
2022/01/26 04:41:58;;;;;;;;;;;;;;;1.76;89.21;103300.22;5072880;28;19981;-71
2022/01/26 04:44:31;;;;;;;;;;;;;;;1.79;88.62;103299.63;5070613;28;19929;-71
2022/01/26 04:46:56;;;;;;;;;;;;;;;1.74;88.89;103300.78;5070070;28;19922;-75
2022/01/26 04:49:22;;;;;;;;;;;;;;;1.71;89.03;103300.50;5072467;28;20248;-71
2022/01/26 04:51:47;;;;;;;;;;;;;;;1.69;89.17;103299.41;5073129;28;19920;-71
2022/01/26 04:54:12;;;;;;;;;;;;;;;1.71;89.25;103290.34;5078366;28;19924;-71
2022/01/26 04:56:38;;;;;;;;;;;;;;;1.70;89.35;103303.75;5056935;28;20398;-71
2022/01/26 04:59:03;;;;;;;;;;;;;;;1.68;89.18;103310.31;5044698;28;19943;-71
2022/01/26 05:01:29;;;;;;;;;;;;;;;1.71;89.15;103296.31;5081815;28;19931;-70
2022/01/26 05:03:54;;;;;;;;;;;;;;;1.77;89.17;103288.44;5069138;28;20369;-71
2022/01/26 05:06:19;;;;;;;;;;;;;;;1.76;88.94;103279.94;5053946;28;20381;-71
2022/01/26 05:08:44;;;;;;;;;;;;;;;1.69;89.19;103291.81;5073134;28;19920;-71
2022/01/26 05:11:14;;;;;;;;;;;;;;;1.67;89.50;103294.19;5053718;28;20385;-71
2022/01/26 05:13:39;;;;;;;;;;;;;;;1.83;88.70;103287.41;5057810;28;19925;-71
2022/01/26 05:16:06;;;;;;;;;;;;;;;1.71;89.03;103270.94;5069802;28;19986;-71
2022/01/26 05:18:33;;;;;;;;;;;;;;;1.76;88.93;103267.25;5068361;28;20019;-71
2022/01/26 05:21:02;;;;;;;;;;;;;;;1.80;88.53;103265.91;5074400;28;19928;-72
2022/01/26 05:23:27;;;;;;;;;;;;;;;1.74;88.94;103253.50;5074103;28;19924;-70
2022/01/26 05:25:52;;;;;;;;;;;;;;;1.83;88.22;103244.28;5055300;28;19921;-71
2022/01/26 05:28:18;;;;;;;;;;;;;;;1.71;89.10;103244.69;5074483;28;19924;-71
2022/01/26 05:30:43;;;;;;;;;;;;;;;1.68;89.80;103241.84;5066230;28;20296;-71
2022/01/26 05:33:08;;;;;;;;;;;;;;;1.68;89.26;103244.38;5052400;28;19920;-71
2022/01/26 05:35:33;;;;;;;;;;;;;;;1.62;89.61;103259.84;5065225;28;19931;-71
2022/01/26 05:37:59;;;;;;;;;;;;;;;1.73;89.60;103255.88;5061776;28;19925;-71
2022/01/26 05:40:25;;;;;;;;;;;;;;;1.66;89.37;103246.75;5068005;28;19936;-72
2022/01/26 05:42:52;;;;;;;;;;;;;;;1.76;89.20;103251.09;5049080;28;20135;-72
2022/01/26 05:45:25;;;;;;;;;;;;;;;1.64;89.46;103255.84;5044630;28;19928;-72
2022/01/26 05:47:50;;;;;;;;;;;;;;;1.60;89.84;103258.81;5056658;28;20003;-72
2022/01/26 05:50:18;;;;;;;;;;;;;;;1.60;89.81;103252.09;5060054;28;20023;-71
2022/01/26 05:52:43;;;;;;;;;;;;;;;1.58;89.82;103256.13;5032582;28;19928;-72
2022/01/26 05:55:08;;;;;;;;;;;;;;;1.65;89.67;103244.97;5063516;28;19943;-71
2022/01/26 05:57:34;;;;;;;;;;;;;;;1.62;89.89;103237.03;5032657;28;19940;-71
2022/01/26 05:59:59;;;;;;;;;;;;;;;1.71;89.99;103234.56;5081127;28;19974;-71
2022/01/26 06:02:24;;;;;;;;;;;;;;;1.66;89.82;103228.09;5048492;28;20019;-71
2022/01/26 06:04:49;;;;;;;;;;;;;;;1.68;89.79;103234.22;5047540;28;19921;-70
2022/01/26 06:07:15;;;;;;;;;;;;;;;1.69;89.74;103236.91;5043962;28;19940;-72
2022/01/26 06:09:40;;;;;;;;;;;;;;;1.64;89.81;103233.03;5043710;28;19928;-70
2022/01/26 06:12:06;;;;;;;;;;;;;;;1.64;90.18;103237.19;5046891;28;19943;-71
2022/01/26 06:14:32;;;;;;;;;;;;;;;1.57;90.45;103253.41;5075907;28;20344;-71
2022/01/26 06:16:57;;;;;;;;;;;;;;;1.61;90.19;103256.44;5049312;28;19924;-71
2022/01/26 06:19:22;;;;;;;;;;;;;;;1.59;90.43;103257.91;5064552;28;19935;-71
2022/01/26 06:21:47;;;;;;;;;;;;;;;1.65;90.30;103244.97;5060498;28;19924;-71
2022/01/26 06:24:13;;;;;;;;;;;;;;;1.68;90.58;103230.03;5065132;28;20361;-71
2022/01/26 06:26:40;;;;;;;;;;;;;;;1.67;90.44;103229.91;5043936;28;19947;-71
2022/01/26 06:29:06;;;;;;;;;;;;;;;1.64;90.71;103244.78;5045170;28;19917;-71
2022/01/26 06:31:31;;;;;;;;;;;;;;;1.63;91.19;103231.22;5045745;28;19923;-71
2022/01/26 06:33:57;;;;;;;;;;;;;;;1.60;91.04;103229.28;5047366;28;19971;-71
2022/01/26 06:36:22;;;;;;;;;;;;;;;1.58;91.14;103235.84;5062022;28;19917;-72
2022/01/26 06:38:49;;;;;;;;;;;;;;;1.57;91.31;103239.09;5039584;28;19916;-70
2022/01/26 06:41:22;;;;;;;;;;;;;;;1.60;91.23;103248.66;5073518;28;20338;-71
2022/01/26 06:43:52;;;;;;;;;;;;;;;1.56;91.74;103255.06;5061479;28;20031;-71
2022/01/26 06:46:27;;;;;;;;;;;;;;;1.55;91.97;103255.78;5057601;28;19928;-71
2022/01/26 06:51:44;;;;;;;;;;;;;;;1.56;91.71;103260.13;5023418;28;20089;-71
2022/01/26 06:54:09;;;;;;;;;;;;;;;1.57;92.13;103243.25;5060690;28;19920;-72
2022/01/26 06:56:34;;;;;;;;;;;;;;;1.60;92.25;103247.03;5044008;28;19960;-71
2022/01/26 06:58:59;;;;;;;;;;;;;;;1.60;92.32;103241.06;5047211;28;19920;-71
2022/01/26 07:01:25;;;;;;;;;;;;;;;1.59;92.32;103240.16;5040418;28;19963;-70
2022/01/26 07:03:50;;;;;;;;;;;;;;;1.64;91.79;103243.19;5061353;28;19920;-71
2022/01/26 07:06:15;;;;;;;;;;;;;;;1.63;92.20;103241.34;5031018;28;19928;-71
2022/01/26 07:08:40;;;;;;;;;;;;;;;1.61;92.62;103238.66;5034060;28;19927;-71
2022/01/26 07:11:06;;;;;;;;;;;;;;;1.65;91.73;103249.16;5029547;28;19921;-72
2022/01/26 07:13:31;;;;;;;;;;;;;;;1.65;92.57;103249.16;5044892;28;20278;-73
2022/01/26 07:21:28;;;;;;;;;;;;;;;1.64;93.92;103260.00;5052254;28;19982;-76
2022/01/26 07:23:57;;;;;;;;;;;;;;;1.67;94.02;103286.59;5043282;28;20532;-71
2022/01/26 07:26:27;;;;;;;;;;;;;;;1.64;94.05;103272.69;5056557;28;20412;-71
2022/01/26 07:28:52;;;;;;;;;;;;;;;1.61;93.51;103265.66;5077352;28;20385;-71
2022/01/26 07:31:17;;;;;;;;;;;;;;;1.60;94.13;103261.34;5042709;28;19920;-70
2022/01/26 07:33:43;;;;;;;;;;;;;;;1.64;94.66;103265.06;5038673;28;19931;-71
2022/01/26 07:36:08;;;;;;;;;;;;;;;1.65;94.69;103259.28;5045636;28;20290;-69
2022/01/26 07:38:33;;;;;;;;;;;;;;;1.64;94.63;103257.47;5048373;28;19978;-70
2022/01/26 07:40:59;;;;;;;;;;;;;;;1.67;93.50;103250.19;5059181;28;19924;-71
2022/01/26 07:43:25;;;;;;;;;;;;;;;1.59;95.34;103270.59;5042355;28;19928;-71
2022/01/26 07:45:50;;;;;;;;;;;;;;;1.58;96.00;103270.44;5058363;28;19935;-71
2022/01/26 07:48:16;;;;;;;;;;;;;;;1.59;94.78;103260.44;5059913;28;19936;-71
2022/01/26 07:50:41;;;;;;;;;;;;;;;1.63;95.02;103263.28;5041847;28;19941;-71
2022/01/26 07:53:12;;;;;;;;;;;;;;;1.66;95.14;103253.47;5060725;28;20297;-70
2022/01/26 07:55:37;;;;;;;;;;;;;;;1.65;95.51;103279.56;5058597;28;19924;-70
2022/01/26 07:58:03;;;;;;;;;;;;;;;1.75;95.36;103287.38;5046569;28;19920;-74
2022/01/26 08:00:28;;;;;;;;;;;;;;;1.68;95.90;103292.56;5059306;28;19971;-70
2022/01/26 08:02:53;;;;;;;;;;;;;;;1.71;95.33;103292.88;5054736;28;19936;-70
2022/01/26 08:05:21;;;;;;;;;;;;;;;1.70;95.05;103293.59;5048115;28;20335;-72
2022/01/26 08:07:47;;;;;;;;;;;;;;;1.68;97.16;103292.56;5075427;28;19920;-72
2022/01/26 08:10:12;;;;;;;;;;;;;;;1.70;96.14;103283.47;5044244;28;20389;-76
2022/01/26 08:12:38;;;;;;;;;;;;;;;1.73;95.74;103288.84;5046696;28;20294;-72
2022/01/26 08:15:04;;;;;;;;;;;;;;;1.71;98.23;103293.78;5054148;28;19923;-73
2022/01/26 08:17:30;;;;;;;;;;;;;;;1.72;97.61;103297.22;5068354;28;19928;-74
2022/01/26 08:19:56;;;;;;;;;;;;;;;1.76;97.66;103296.75;5043363;28;19929;-73
2022/01/26 08:22:23;;;;;;;;;;;;;;;1.74;97.74;103288.13;5060503;28;19958;-73
2022/01/26 08:24:50;;;;;;;;;;;;;;;1.77;97.71;103290.97;5039782;28;19928;-71
2022/01/26 08:27:17;;;;;;;;;;;;;;;1.81;96.33;103288.88;5038787;28;19920;-71
2022/01/26 08:29:47;;;;;;;;;;;;;;;1.81;96.85;103298.13;5062569;28;19916;-73
2022/01/26 08:32:13;;;;;;;;;;;;;;;1.86;97.82;103292.78;5061336;28;19920;-72
2022/01/26 08:34:38;;;;;;;;;;;;;;;1.87;96.94;103278.47;5043289;28;19951;-73
2022/01/26 08:37:04;;;;;;;;;;;;;;;1.87;97.20;103284.44;5056738;28;19920;-71
2022/01/26 08:39:29;;;;;;;;;;;;;;;1.88;97.78;103282.78;5058220;28;19921;-71
2022/01/26 08:41:55;;;;;;;;;;;;;;;1.93;96.14;103276.53;5028758;28;20340;-70
2022/01/26 08:44:20;;;;;;;;;;;;;;;1.96;97.43;103293.75;5053924;28;20442;-70
2022/01/26 08:46:45;;;;;;;;;;;;;;;2.04;97.03;103282.72;5065931;28;19920;-71
2022/01/26 08:49:11;;;;;;;;;;;;;;;2.02;97.04;103295.25;5063453;28;19921;-67
2022/01/26 08:51:36;;;;;;;;;;;;;;;2.04;96.69;103301.38;5077452;28;19928;-71
2022/01/26 08:54:02;;;;;;;;;;;;;;;2.06;97.56;103297.38;5046372;28;19921;-74
2022/01/26 08:56:27;;;;;;;;;;;;;;;2.14;96.31;103293.94;5064101;28;19924;-72
2022/01/26 08:58:53;;;;;;;;;;;;;;;2.15;96.27;103292.31;5061732;28;20331;-71
2022/01/26 09:01:19;;;;;;;;;;;;;;;2.19;96.32;103291.00;5061492;28;20387;-72
2022/01/26 09:03:44;;;;;;;;;;;;;;;2.22;96.50;103283.66;5051524;28;20327;-71
2022/01/26 09:06:10;;;;;;;;;;;;;;;2.21;96.21;103280.22;5044955;28;20003;-70
2022/01/26 09:08:38;;;;;;;;;;;;;;;2.24;96.61;103287.25;5066596;28;20043;-72
2022/01/26 09:11:04;;;;;;;;;;;;;;;2.24;96.29;103277.09;5063221;28;20327;-71
2022/01/26 09:13:30;;;;;;;;;;;;;;;2.25;96.19;103282.34;5047335;28;19917;-70
2022/01/26 09:15:56;;;;;;;;;;;;;;;2.28;96.68;103290.25;5060961;28;20376;-72
2022/01/26 09:18:32;;;;;;;;;;;;;;;2.27;96.80;103293.53;5062836;28;20031;-71
2022/01/26 09:20:57;;;;;;;;;;;;;;;2.30;96.52;103287.84;5028361;28;19932;-70
2022/01/26 09:23:22;;;;;;;;;;;;;;;2.31;96.60;103294.75;5045601;28;19955;-71
2022/01/26 09:25:48;;;;;;;;;;;;;;;2.36;95.64;103293.53;5063587;28;19920;-71
2022/01/26 09:28:13;;;;;;;;;;;;;;;2.35;96.46;103291.75;5043407;28;19937;-71
2022/01/26 09:30:38;;;;;;;;;;;;;;;2.38;96.15;103303.13;5063001;28;19935;-71
2022/01/26 09:33:03;;;;;;;;;;;;;;;2.41;96.31;103300.88;5075219;28;19928;-70
2022/01/26 09:35:29;;;;;;;;;;;;;;;2.47;95.39;103299.69;5049796;28;19925;-70
2022/01/26 09:37:54;;;;;;;;;;;;;;;2.48;95.93;103296.41;5062647;28;19932;-70
2022/01/26 09:40:19;;;;;;;;;;;;;;;2.49;95.94;103288.97;5066583;28;19931;-71
2022/01/26 09:42:46;;;;;;;;;;;;;;;2.51;95.86;103286.56;5065337;28;19924;-73
2022/01/26 09:45:12;;;;;;;;;;;;;;;2.52;96.30;103284.19;5026483;28;19925;-70
2022/01/26 09:47:37;;;;;;;;;;;;;;;2.58;95.69;103273.72;5046264;28;19925;-70
2022/01/26 09:50:03;;;;;;;;;;;;;;;2.60;95.25;103277.31;5043945;28;20400;-71
2022/01/26 09:52:36;;;;;;;;;;;;;;;2.65;95.12;103266.84;5073410;28;20271;-71
2022/01/26 09:55:03;;;;;;;;;;;;;;;2.70;95.29;103272.41;5041129;28;19982;-71
2022/01/26 09:57:29;;;;;;;;;;;;;;;2.81;94.00;103269.25;5076533;28;19967;-71
2022/01/26 09:59:55;;;;;;;;;;;;;;;2.73;94.98;103272.72;5026029;28;19933;-71
2022/01/26 10:02:24;;;;;;;;;;;;;;;2.78;94.71;103278.22;5038556;28;19917;-71
2022/01/26 10:04:55;;;;;;;;;;;;;;;2.78;94.90;103270.59;5038007;28;19920;-70
2022/01/26 10:07:41;;;;;;;;;;;;;;;2.75;95.08;103266.13;5039867;28;20011;-70
2022/01/26 10:15:27;;;;;;;;;;;;;;;2.79;94.90;103267.31;5039190;28;19961;-71
2022/01/26 10:15:53;;;;;;;;;;;;;;;2.80;94.17;103274.19;5045398;28;20342;-70
2022/01/26 10:18:20;;;;;;;;;;;;;;;2.75;94.26;103276.28;5042851;28;20386;-70
2022/01/26 10:20:50;;;;;;;;;;;;;;;2.76;94.85;103267.03;5042313;28;19925;-72
2022/01/26 10:23:25;;;;;;;;;;;;;;;2.76;94.50;103256.84;5043547;28;19917;-73
2022/01/26 10:26:01;;;;;;;;;;;;;;;2.77;94.46;103248.47;5038946;28;19917;-72
2022/01/26 10:28:26;;;;;;;;;;;;;;;2.79;94.92;103259.69;5043655;28;20308;-71
2022/01/26 10:30:51;;;;;;;;;;;;;;;2.80;94.82;103267.47;5044507;28;19925;-70
2022/01/26 10:33:17;;;;;;;;;;;;;;;2.80;95.04;103279.28;5043677;28;19925;-70
2022/01/26 10:35:42;;;;;;;;;;;;;;;2.81;95.20;103286.16;5044366;28;19927;-72
2022/01/26 10:38:08;;;;;;;;;;;;;;;2.84;94.92;103307.66;5045209;28;19925;-71
2022/01/26 10:40:34;;;;;;;;;;;;;;;2.88;94.73;103321.56;5057967;28;19935;-71
2022/01/26 10:43:04;;;;;;;;;;;;;;;2.84;95.15;103328.00;5039646;28;19928;-71
2022/01/26 10:45:44;;;;;;;;;;;;;;;2.82;nan;103326.94;5059724;28;19966;-70
2022/01/26 10:48:44;;;;;;;;;;;;;;;2.85;94.97;103323.81;5048193;28;19999;-75
2022/01/26 10:51:34;;;;;;;;;;;;;;;2.89;94.57;103319.19;5045238;28;20468;-72
2022/01/26 10:54:11;;;;;;;;;;;;;;;2.87;94.78;103313.06;5073690;28;19972;-72
2022/01/26 10:56:36;;;;;;;;;;;;;;;2.85;95.34;103314.56;5048427;28;20396;-72
2022/01/26 10:59:02;;;;;;;;;;;;;;;2.86;95.24;103297.66;5061819;28;20017;-71
2022/01/26 11:01:27;;;;;;;;;;;;;;;2.91;95.03;103299.00;5046624;28;19928;-70
2022/01/26 11:03:52;;;;;;;;;;;;;;;2.88;95.35;103299.59;5065794;28;19917;-72
2022/01/26 11:06:18;;;;;;;;;;;;;;;2.92;95.06;103300.81;5061768;28;20049;-72
2022/01/26 11:08:44;;;;;;;;;;;;;;;2.92;95.17;103295.72;5066167;28;19929;-72
2022/01/26 11:11:19;;;;;;;;;;;;;;;3.02;94.93;103292.41;5045745;28;19932;-72
2022/01/26 11:13:44;;;;;;;;;;;;;;;2.99;94.83;103297.22;5062942;28;19951;-71
2022/01/26 11:16:11;;;;;;;;;;;;;;;2.99;94.89;103295.56;5063958;28;20374;-72
2022/01/26 11:18:53;;;;;;;;;;;;;;;3.02;94.92;103287.34;5051514;28;19919;-72
2022/01/26 11:21:35;;;;;;;;;;;;;;;3.09;94.72;103282.09;5066563;28;20062;-72
2022/01/26 11:24:08;;;;;;;;;;;;;;;3.10;94.70;103289.88;5074699;28;20435;-72
2022/01/26 11:26:34;;;;;;;;;;;;;;;3.13;95.03;103285.09;5068370;28;19966;-73
2022/01/26 11:29:00;;;;;;;;;;;;;;;3.14;94.63;103284.31;5046556;28;19917;-73
2022/01/26 11:31:25;;;;;;;;;;;;;;;3.17;94.77;103271.94;5048913;28;20017;-72
2022/01/26 11:33:51;;;;;;;;;;;;;;;3.19;94.54;103278.06;5078355;28;19924;-73
2022/01/26 11:36:17;;;;;;;;;;;;;;;3.23;94.15;103269.97;5047804;28;19920;-73
2022/01/26 11:46:55;;;;;;;;;;;;;;;3.46;93.34;103261.09;5063821;28;20457;-73
2022/01/26 11:49:25;;;;;;;;;;;;;;;3.48;93.51;103257.94;5063573;28;19968;-73
2022/01/26 11:51:52;;;;;;;;;;;;;;;3.59;93.25;103252.97;5065107;28;20404;-72
2022/01/26 11:54:19;;;;;;;;;;;;;;;3.59;93.55;103251.34;5049181;28;20356;-72
2022/01/26 11:56:53;;;;;;;;;;;;;;;3.71;93.11;103243.97;5065669;28;19925;-71
2022/01/26 11:59:20;;;;;;;;;;;;;;;3.67;92.97;103235.13;5064507;28;20424;-72
2022/01/26 12:01:54;;;;;;;;;;;;;;;3.66;93.20;103233.34;5066656;28;20292;-73
2022/01/26 12:04:19;;;;;;;;;;;;;;;3.70;92.71;103237.06;5065055;28;19920;-72
2022/01/26 12:06:56;;;;;;;;;;;;;;;3.70;92.74;103230.34;5031823;28;19935;-73
2022/01/26 12:09:22;;;;;;;;;;;;;;;3.72;92.59;103230.47;5062172;28;19971;-73
2022/01/26 12:11:51;;;;;;;;;;;;;;;3.69;92.76;103235.25;5060502;28;19960;-72
2022/01/26 12:14:19;;;;;;;;;;;;;;;3.72;93.12;103233.91;5063815;28;20431;-72
2022/01/26 12:16:47;;;;;;;;;;;;;;;3.76;93.38;103237.63;5064400;28;19956;-72
2022/01/26 12:19:35;;;;;;;;;;;;;;;3.84;92.78;103243.44;5061907;28;20278;-72
2022/01/26 12:38:19;;;;;;;;;;;;;;;3.99;91.97;103242.31;5056424;28;19920;-73
2022/01/26 12:43:50;;;;;;;;;;;;;;;3.98;92.34;103248.16;5064102;28;20034;-73
2022/01/26 12:46:19;;;;;;;;;;;;;;;4.05;92.11;103245.41;5065425;28;19973;-72
2022/01/26 12:48:59;;;;;;;;;;;;;;;4.11;92.35;103235.81;5051087;28;19956;-72
2022/01/26 12:51:26;;;;;;;;;;;;;;;4.13;91.33;103235.97;5063106;28;20389;-74
2022/01/26 12:53:55;;;;;;;;;;;;;;;4.17;91.47;103244.00;5050930;28;20374;-75
2022/01/26 12:56:23;;;;;;;;;;;;;;;4.21;91.03;103235.91;5066055;28;20280;-73
2022/01/26 12:58:58;;;;;;;;;;;;;;;4.28;90.57;103228.06;5047180;28;19916;-73
2022/01/26 13:01:23;;;;;;;;;;;;;;;4.29;90.63;103221.31;5049629;28;19921;-74
2022/01/26 13:03:48;;;;;;;;;;;;;;;4.27;90.67;103213.53;5037320;28;19925;-73
2022/01/26 13:06:18;;;;;;;;;;;;;;;4.23;90.22;103220.75;5062093;28;19962;-72
2022/01/26 13:08:47;;;;;;;;;;;;;;;4.21;90.47;103210.44;5064950;28;20484;-73
2022/01/26 13:11:12;;;;;;;;;;;;;;;4.26;90.77;103211.75;5046635;28;19917;-73
2022/01/26 13:13:38;;;;;;;;;;;;;;;4.27;90.87;103205.91;5082751;28;20444;-72
2022/01/26 13:16:17;;;;;;;;;;;;;;;4.25;90.43;103194.69;5064542;28;19916;-70
2022/01/26 13:24:12;;;;;;;;;;;;;;;4.31;90.27;103196.91;5061599;28;19920;-73
2022/01/26 13:26:49;;;;;;;;;;;;;;;4.37;90.76;103193.97;5037490;28;19924;-72
2022/01/26 13:36:49;;;;;;;;;;;;;;;4.36;90.02;103198.19;5064199;28;19943;-72
2022/01/26 13:52:44;;;;;;;;;;;;;;;4.25;90.52;103184.50;5030852;28;20006;-71
2022/01/26 14:00:41;;;;;;;;;;;;;;;4.38;89.55;103163.56;5050533;28;19931;-73
2022/01/26 14:03:09;;;;;;;;;;;;;;;4.34;89.63;103169.13;5068387;28;19920;-72
2022/01/26 14:05:34;;;;;;;;;;;;;;;4.34;90.27;103174.22;5068179;28;19998;-72
2022/01/26 14:08:00;;;;;;;;;;;;;;;4.37;89.64;103159.25;5039489;28;19916;-73
2022/01/26 14:10:25;;;;;;;;;;;;;;;4.28;89.24;103166.94;5070089;28;19926;-73
2022/01/26 14:12:51;;;;;;;;;;;;;;;4.18;90.32;103165.94;5048583;28;20007;-72
2022/01/26 14:15:26;;;;;;;;;;;;;;;4.12;90.52;103161.19;5063499;28;20193;-73
2022/01/26 14:20:43;;;;;;;;;;;;;;;4.10;90.40;103160.19;5064223;28;19932;-74
2022/01/26 14:25:29;;;;;;;;;;;;;;;4.11;90.92;103163.63;5070124;28;20391;-74
2022/01/26 14:28:00;;;;;;;;;;;;;;;4.17;90.74;103154.88;5053547;28;19920;-73
2022/01/26 14:36:17;;;;;;;;;;;;;;;4.07;90.96;103148.84;5064854;28;20740;-73
2022/01/26 14:54:47;;;;;;;;;;;;;;;3.99;91.26;103154.09;5056161;28;19929;-72
2022/01/26 15:40:29;;;;;;;;;;;;;;;3.80;91.48;103153.19;5067509;28;20311;-74
2022/01/26 15:43:22;;;;;;;;;;;;;;;3.63;92.14;103155.81;5052683;28;19924;-73
2022/01/26 15:51:13;;;;;;;;;;;;;;;3.63;92.08;103143.09;5056293;28;19927;-73
2022/01/26 16:18:28;;;;;;;;;;;;;;;3.54;92.44;103130.44;5069546;28;19927;-73
2022/01/26 16:39:10;;;;;;;;;;;;;;;3.33;93.39;103154.75;5068978;28;19917;-75
2022/01/26 16:52:27;;;;;;;;;;;;;;;3.34;93.03;103138.78;5076412;28;19939;-74
2022/01/26 17:47:19;;;;;;;;;;;;;;;3.13;93.95;103134.19;5068756;28;19923;-75
2022/01/26 18:33:26;;;;;;;;;;;;;;;2.94;94.44;103104.50;5064151;28;19939;-75
2022/01/26 18:49:21;;;;;;;;;;;;;;;2.89;95.30;103104.81;5065926;28;19921;-75
2022/01/26 18:51:49;;;;;;;;;;;;;;;3.03;94.32;103093.41;5050904;28;20421;-75
2022/01/26 18:54:16;;;;;;;;;;;;;;;2.94;94.54;103093.44;5065685;28;19947;-75
2022/01/26 18:56:41;;;;;;;;;;;;;;;2.96;94.77;103094.47;5051378;28;19920;-75
2022/01/26 18:59:07;;;;;;;;;;;;;;;2.93;94.96;103094.22;5062567;28;20444;-74
2022/01/26 19:01:33;;;;;;;;;;;;;;;3.00;94.05;103090.59;5063051;28;19921;-75
2022/01/26 19:03:58;;;;;;;;;;;;;;;2.92;94.80;103094.97;5044772;28;20261;-74
2022/01/26 19:06:24;;;;;;;;;;;;;;;2.99;94.42;103092.25;5062452;28;19932;-74
2022/01/26 19:08:49;;;;;;;;;;;;;;;2.92;95.15;103092.44;5050428;28;19917;-74
2022/01/26 19:11:16;;;;;;;;;;;;;;;2.94;94.65;103096.00;5063071;28;20401;-74
2022/01/26 19:13:44;;;;;;;;;;;;;;;2.94;94.55;103081.63;5064808;28;20554;-75
2022/01/26 19:16:20;;;;;;;;;;;;;;;3.00;94.46;103076.25;5065272;28;19924;-73
2022/01/26 19:18:55;;;;;;;;;;;;;;;2.96;94.41;103087.75;5031466;28;20019;-75
2022/01/26 19:21:47;;;;;;;;;;;;;;;2.86;94.64;103087.66;5078105;28;20405;-75
2022/01/26 19:26:52;;;;;;;;;;;;;;;2.88;94.76;103091.22;5051914;28;19929;-74
2022/01/26 19:52:49;;;;;;;;;;;;;;;2.86;95.05;103069.88;5066254;28;19963;-75
2022/01/26 19:55:15;;;;;;;;;;;;;;;2.84;94.91;103066.25;5057492;28;20357;-76
2022/01/26 19:57:41;;;;;;;;;;;;;;;2.81;95.00;103062.56;5065034;28;20424;-75